Oro Grande, California
Current Conditions -  °F | °C
As of 12:15 PM on Sunday 25 Jan 2015 (Local Time) from KVCV Reporting Station
Clear Clear  
Wind Chill: 68°   Ceiling: Unl
Heat Index: 68°   Visibility: 10mi
Dew Point: 27°   Wind: 14mph
Humidity: 21%   Direction: 40°NE
Pressure: 30.19"   Gusts: 17mph
Location:  34.6°N, 117.34°W
Report Text: KVCV 252015Z AUTO 04012G15KT 10SM CLR 20/M03 A3019 RMK AO2
Loading
Personal Weather Stations






























Interactive Weather Map New forecast layout! Learn more

10-Day Weather Forecast

Advertisements
Track Severe Weather on mobile